Nome, Alaska
Current Conditions -  °F | °C
As of 9:53 AM on Friday 21 Nov 2014 (Local Time) from PAOM Reporting Station
Scattered Clouds Scattered Clouds  
Wind Chill: 25°   Ceiling: Unl
Heat Index: 31°   Visibility: 10mi
Dew Point: 21°   Wind: 6mph
Humidity: 67%   Direction: 360°N
Pressure: 29.14"   Gusts: NA
Location:  64.5°N, 165.41°W
Report Text: PAOM 211853Z 36005KT 10SM FEW140 SCT240 M01/M06 A2914 RMK AO2 SLP868 T10061061
Loading
Personal Weather Stations






























Interactive Weather Map New forecast layout! Learn more

10-Day Weather Forecast

Advertisements
Track Severe Weather on mobile